Time;durP1;ratioP1;P1;durP2;ratioP2;P2;SDS_P1;SDS_P2;PMS_P1;PMS_P2;Temp;Humidity;BMP_temperature;BMP_pressure;BME280_temperature;BME280_humidity;BME280_pressure;Samples;Min_cycle;Max_cycle;Signal;HPM_P1;HPM_P2
2022/06/10 00:02:20;;;;;;;12.25;4.05;;;;;;;15.80;62.73;101990.72;5105822;28;20024;-63
2022/06/10 00:04:46;;;;;;;10.38;4.30;;;;;;;15.84;62.57;101992.75;5088084;28;20087;-62
2022/06/10 00:07:11;;;;;;;12.57;4.25;;;;;;;15.81;62.41;101981.25;5109929;28;20024;-63
2022/06/10 00:09:36;;;;;;;12.63;4.88;;;;;;;15.76;62.78;101983.94;5085720;28;20464;-62
2022/06/10 00:12:02;;;;;;;12.32;4.88;;;;;;;15.78;62.56;101984.56;5094646;28;20207;-62
2022/06/10 00:14:30;;;;;;;13.80;4.25;;;;;;;15.77;62.62;101994.06;5095691;28;20479;-62
2022/06/10 00:16:55;;;;;;;18.38;4.90;;;;;;;15.73;62.59;101990.09;5091520;28;20038;-62
2022/06/10 00:19:21;;;;;;;12.57;4.72;;;;;;;15.71;62.57;101987.53;5097782;28;20031;-62
2022/06/10 00:21:49;;;;;;;12.60;4.93;;;;;;;15.73;62.98;101993.72;5092029;28;20028;-63
2022/06/10 00:24:14;;;;;;;13.27;4.47;;;;;;;15.77;62.99;101986.50;5098301;28;20028;-63
2022/06/10 00:26:39;;;;;;;18.88;5.40;;;;;;;15.73;62.88;101990.94;5101014;28;20166;-63
2022/06/10 00:29:05;;;;;;;12.95;4.72;;;;;;;15.71;63.12;101988.38;5095366;28;20422;-63
2022/06/10 00:31:30;;;;;;;11.55;4.45;;;;;;;15.70;62.78;101980.25;5106520;28;20027;-64
2022/06/10 00:33:55;;;;;;;13.30;4.75;;;;;;;15.68;63.06;101982.47;5100658;27;20026;-64
2022/06/10 00:36:23;;;;;;;12.18;3.83;;;;;;;15.70;62.99;101983.06;5102017;28;20504;-63
2022/06/10 00:38:48;;;;;;;11.45;4.57;;;;;;;15.69;63.40;101984.16;5098033;28;20047;-63
2022/06/10 00:41:14;;;;;;;13.68;4.32;;;;;;;15.68;62.95;101985.28;5107645;28;20047;-63
2022/06/10 00:43:39;;;;;;;17.83;4.45;;;;;;;15.70;63.10;101983.06;5103926;27;20394;-63
2022/06/10 00:46:23;;;;;;;12.43;4.63;;;;;;;15.75;63.07;101974.72;5108198;28;20054;-64
2022/06/10 00:48:49;;;;;;;10.60;3.60;;;;;;;15.69;62.63;101984.16;5108410;28;20110;-63
2022/06/10 00:51:23;;;;;;;12.48;3.78;;;;;;;15.68;62.81;101979.69;5107656;28;20118;-64
2022/06/10 00:53:55;;;;;;;10.75;3.28;;;;;;;15.72;62.44;101980.84;5108161;28;20031;-64
2022/06/10 00:56:30;;;;;;;13.10;3.55;;;;;;;15.69;62.89;101975.78;5105195;28;20035;-64
2022/06/10 00:59:20;;;;;;;12.35;3.50;;;;;;;15.76;62.72;101967.16;5101996;28;20049;-63
2022/06/10 01:01:46;;;;;;;13.07;3.58;;;;;;;15.70;62.69;101975.50;5100142;28;20027;-64
2022/06/10 01:04:12;;;;;;;11.60;3.95;;;;;;;15.76;62.59;101967.16;5093332;28;20093;-63
2022/06/10 01:06:38;;;;;;;13.50;3.80;;;;;;;15.76;62.50;101968.03;5102092;28;20490;-63
2022/06/10 01:09:04;;;;;;;12.23;3.78;;;;;;;15.76;62.52;101967.16;5094642;28;20739;-63
2022/06/10 01:11:47;;;;;;;10.98;3.80;;;;;;;15.76;62.62;101973.63;5101688;28;20084;-64
2022/06/10 01:14:22;;;;;;;11.73;3.55;;;;;;;15.73;62.48;101976.09;5108132;28;20114;-63
2022/06/10 01:17:05;;;;;;;10.27;3.22;;;;;;;15.76;62.62;101979.22;5106227;28;20035;-64
2022/06/10 01:19:52;;;;;;;13.32;3.40;;;;;;;15.74;62.82;101981.41;5106260;28;20035;-64
2022/06/10 01:22:27;;;;;;;10.73;3.30;;;;;;;15.74;62.41;101978.63;5100359;28;20115;-62
2022/06/10 01:25:12;;;;;;;10.57;2.90;;;;;;;15.69;62.79;101975.78;5106086;28;20060;-62
2022/06/10 01:28:07;;;;;;;9.88;3.13;;;;;;;15.80;62.68;101974.78;5095491;28;20577;-62
2022/06/10 01:31:09;;;;;;;12.05;3.33;;;;;;;15.77;62.57;101975.31;5096650;28;20031;-63
2022/06/10 01:33:34;;;;;;;10.13;2.88;;;;;;;15.72;62.32;101980.84;5084503;28;20427;-63
2022/06/10 01:36:09;;;;;;;8.75;2.80;;;;;;;15.73;62.10;101981.69;5101763;28;20066;-63
2022/06/10 01:38:46;;;;;;;13.38;2.60;;;;;;;15.71;62.59;101977.19;5102146;28;20031;-63
2022/06/10 01:41:38;;;;;;;11.23;2.97;;;;;;;15.76;62.43;101975.56;5084215;28;20093;-63
2022/06/10 01:44:13;;;;;;;10.48;2.92;;;;;;;15.73;62.24;101973.31;5088339;28;20474;-63
2022/06/10 01:46:51;;;;;;;10.55;2.58;;;;;;;15.72;62.37;101969.66;5097069;28;20109;-63
2022/06/10 01:49:29;;;;;;;14.57;3.47;;;;;;;15.75;62.28;101982.25;5076421;28;20028;-63
2022/06/10 01:52:16;;;;;;;9.57;2.72;;;;;;;15.80;62.34;101973.91;5106432;28;20028;-63
2022/06/10 01:54:48;;;;;;;13.35;3.20;;;;;;;15.74;62.06;101983.38;5094653;28;20042;-63
2022/06/10 01:57:19;;;;;;;;;;;;;;;15.95;61.92;101971.31;5083303;28;20398;-63
2022/06/10 01:59:52;;;;;;;13.20;2.75;;;;;;;15.75;62.38;101974.72;5102605;28;19999;-63
2022/06/10 02:02:29;;;;;;;10.05;2.63;;;;;;;15.74;62.41;101981.41;5093885;28;20475;-63
2022/06/10 02:05:00;;;;;;;17.15;2.53;;;;;;;15.76;61.95;101973.63;5098779;28;20086;-63
2022/06/10 02:07:34;;;;;;;10.30;2.78;;;;;;;15.74;62.65;101969.38;5092692;28;20020;-63
2022/06/10 02:10:13;;;;;;;10.00;2.60;;;;;;;15.82;62.42;101978.16;5098040;28;20040;-63
2022/06/10 02:12:47;;;;;;;10.07;2.90;;;;;;;15.80;62.67;101980.41;5080836;28;20032;-62
2022/06/10 02:15:20;;;;;;;11.30;2.88;;;;;;;15.80;62.55;101982.31;5082720;28;20446;-63
2022/06/10 02:18:05;;;;;;;9.27;2.90;;;;;;;15.85;62.44;101983.25;5094710;28;20028;-63
2022/06/10 02:20:31;;;;;;;7.88;2.63;;;;;;;15.81;62.74;101978.44;5096634;28;20020;-63
2022/06/10 02:23:03;;;;;;;10.32;2.83;;;;;;;15.83;62.46;101973.41;5105977;28;20067;-63
2022/06/10 02:25:47;;;;;;;10.73;2.90;;;;;;;15.84;62.45;101975.97;5102464;28;20030;-63
2022/06/10 02:28:18;;;;;;;10.10;2.45;;;;;;;15.83;62.60;101979.00;5095277;28;20066;-62
2022/06/10 02:30:54;;;;;;;9.45;2.78;;;;;;;15.80;62.45;101987.91;5101289;28;20030;-64
2022/06/10 02:33:20;;;;;;;9.52;3.05;;;;;;;15.77;62.46;101997.72;5074545;28;20028;-63
2022/06/10 02:36:18;;;;;;;12.68;3.05;;;;;;;15.79;62.58;101989.03;5082055;28;20472;-62
2022/06/10 02:39:21;;;;;;;12.77;2.85;;;;;;;15.84;62.48;101998.38;5078501;28;20055;-63
2022/06/10 02:42:08;;;;;;;7.78;2.50;;;;;;;15.87;62.35;101995.03;5099843;28;20054;-63
2022/06/10 02:45:02;;;;;;;10.38;2.80;;;;;;;15.84;62.38;101997.53;5096002;28;20028;-63
2022/06/10 02:47:33;;;;;;;9.75;3.08;;;;;;;15.79;62.55;102001.06;5065341;28;20080;-63
2022/06/10 02:49:59;;;;;;;10.95;2.92;;;;;;;15.84;62.66;102003.97;5090929;28;20373;-63
2022/06/10 02:52:32;;;;;;;13.40;2.83;;;;;;;15.87;62.63;102002.56;5083386;28;20511;-62
2022/06/10 02:54:57;;;;;;;9.30;2.25;;;;;;;15.86;62.64;102001.72;5104342;28;20025;-63
2022/06/10 03:01:11;;;;;;;8.15;2.35;;;;;;;15.84;62.81;101986.31;5102858;28;20030;-63
2022/06/10 03:03:11;;;;;;;9.05;2.40;;;;;;;15.81;63.00;101996.06;5110138;28;20067;-62
2022/06/10 03:05:43;;;;;;;9.02;2.08;;;;;;;15.81;62.86;101993.28;5087588;28;20065;-62
2022/06/10 03:08:27;;;;;;;6.80;2.40;;;;;;;15.81;62.97;101998.88;5090677;28;20507;-62
2022/06/10 03:11:22;;;;;;;8.25;2.55;;;;;;;15.77;63.14;102010.88;5089754;28;20078;-62
2022/06/10 03:14:19;;;;;;;9.82;2.40;;;;;;;15.74;63.25;102000.19;5078264;28;20066;-62
2022/06/10 03:17:02;;;;;;;8.55;2.40;;;;;;;15.77;63.41;102008.06;5087732;28;20569;-63
2022/06/10 03:19:36;;;;;;;11.35;2.58;;;;;;;15.78;63.10;102005.00;5089578;28;20028;-63
2022/06/10 03:22:19;;;;;;;12.27;3.00;;;;;;;15.80;63.31;102016.78;5085446;28;20032;-63
2022/06/10 03:25:06;;;;;;;12.95;2.67;;;;;;;15.81;63.54;102012.88;5081195;28;20206;-63
2022/06/10 03:27:51;;;;;;;10.95;2.58;;;;;;;15.82;63.94;102017.34;5094165;28;20027;-63
2022/06/10 03:30:20;;;;;;;8.07;2.72;;;;;;;15.82;63.51;102020.16;5096319;28;20034;-63
2022/06/10 03:32:57;;;;;;;8.50;2.45;;;;;;;15.83;63.38;102029.41;5095699;28;20038;-63
2022/06/10 03:35:29;;;;;;;9.55;2.45;;;;;;;15.84;63.53;102025.50;5098121;27;20474;-63
2022/06/10 03:37:55;;;;;;;7.13;2.22;;;;;;;15.84;63.52;102026.34;5086458;27;20020;-63
2022/06/10 03:40:25;;;;;;;11.60;2.70;;;;;;;15.86;63.58;102031.69;5101060;28;20035;-63
2022/06/10 03:42:53;;;;;;;13.40;2.70;;;;;;;15.87;63.49;102024.97;5081124;28;20039;-63
2022/06/10 03:45:24;;;;;;;11.18;2.40;;;;;;;15.88;63.83;102021.09;5089413;28;20368;-63
2022/06/10 03:47:49;;;;;;;7.65;2.25;;;;;;;15.85;63.88;102014.03;5099015;28;20031;-63
2022/06/10 03:50:21;;;;;;;12.07;2.88;;;;;;;15.82;64.58;102016.53;5083486;28;20039;-63
2022/06/10 03:52:47;;;;;;;7.93;2.47;;;;;;;15.86;64.25;102010.13;5096254;28;20040;-63
2022/06/10 03:55:17;;;;;;;10.48;2.83;;;;;;;15.82;64.51;102014.56;5092519;28;20111;-63
2022/06/10 03:57:43;;;;;;;11.48;2.70;;;;;;;15.80;64.13;102016.78;5085476;28;20035;-63
2022/06/10 04:00:13;;;;;;;14.85;2.83;;;;;;;15.79;64.30;102017.88;5098696;28;20360;-63
2022/06/10 04:02:38;;;;;;;9.43;2.85;;;;;;;15.77;64.60;102027.66;5095793;28;20032;-63
2022/06/10 04:05:04;;;;;;;12.73;2.63;;;;;;;15.82;64.30;102022.97;5089861;28;20056;-64
2022/06/10 04:07:29;;;;;;;10.05;2.78;;;;;;;15.81;64.75;102034.44;5088192;28;20031;-63
2022/06/10 04:09:55;;;;;;;9.30;2.35;;;;;;;15.80;64.61;102028.00;5093964;28;20106;-64
2022/06/10 04:12:21;;;;;;;6.80;2.10;;;;;;;15.78;64.72;102032.97;5099630;28;20035;-64
2022/06/10 04:14:47;;;;;;;9.25;2.40;;;;;;;15.77;64.94;102031.28;5098120;28;20035;-64
2022/06/10 04:17:12;;;;;;;7.75;2.20;;;;;;;15.76;65.30;102032.41;5104040;28;20023;-63
2022/06/10 04:19:38;;;;;;;6.10;2.33;;;;;;;15.76;65.69;102032.41;5100391;28;20033;-64
2022/06/10 04:22:04;;;;;;;11.85;2.50;;;;;;;15.76;65.59;102029.63;5107673;28;20046;-63
2022/06/10 04:24:29;;;;;;;10.48;2.58;;;;;;;15.77;66.00;102042.50;5108685;28;20027;-63
2022/06/10 04:26:55;;;;;;;7.43;2.33;;;;;;;15.81;66.17;102040.88;5102938;28;20380;-64
2022/06/10 04:29:21;;;;;;;11.75;2.55;;;;;;;15.82;66.39;102045.34;5086600;28;20051;-63
2022/06/10 04:31:47;;;;;;;13.82;2.53;;;;;;;15.82;66.40;102044.50;5093618;28;20522;-63
2022/06/10 04:34:13;;;;;;;7.78;2.22;;;;;;;15.80;66.80;102043.91;5088412;28;20028;-63
2022/06/10 04:36:39;;;;;;;8.52;2.38;;;;;;;15.80;66.55;102039.19;5090857;28;20379;-63
2022/06/10 04:39:04;;;;;;;11.52;2.53;;;;;;;15.80;66.94;102039.19;5086406;28;20158;-63
2022/06/10 04:41:30;;;;;;;8.82;2.00;;;;;;;15.83;66.99;102046.19;5098792;28;20032;-63
2022/06/10 04:43:55;;;;;;;9.18;2.00;;;;;;;15.82;67.28;102038.91;5091718;28;20111;-63
2022/06/10 04:46:27;;;;;;;8.52;2.17;;;;;;;15.82;66.94;102038.91;5098393;28;20034;-63
2022/06/10 04:48:53;;;;;;;9.95;2.47;;;;;;;15.83;67.12;102043.41;5096514;28;20027;-63
2022/06/10 04:51:19;;;;;;;10.30;2.47;;;;;;;15.81;66.84;102046.47;5103311;28;20144;-63
2022/06/10 04:53:44;;;;;;;7.60;2.50;;;;;;;15.85;66.62;102046.78;5107678;28;20034;-63
2022/06/10 04:56:12;;;;;;;10.43;2.15;;;;;;;15.82;66.52;102045.34;5092385;28;20029;-63
2022/06/10 04:58:39;;;;;;;10.52;2.85;;;;;;;15.84;66.33;102045.97;5087846;28;20039;-63
2022/06/10 05:01:05;;;;;;;10.45;2.90;;;;;;;15.87;66.70;102042.63;5082259;28;20544;-63
2022/06/10 05:03:30;;;;;;;14.80;2.95;;;;;;;15.84;66.63;102047.91;5102022;28;20028;-63
2022/06/10 05:05:58;;;;;;;12.27;2.75;;;;;;;15.88;66.19;102041.53;5103708;28;20024;-63
2022/06/10 05:08:24;;;;;;;10.13;2.83;;;;;;;15.85;66.29;102042.03;5098227;28;20024;-63
2022/06/10 05:10:50;;;;;;;12.65;2.97;;;;;;;15.88;66.21;102035.09;5096525;28;20036;-63
2022/06/10 05:13:17;;;;;;;7.65;2.22;;;;;;;15.87;66.19;102048.22;5106963;28;20100;-63
2022/06/10 05:15:43;;;;;;;11.82;2.85;;;;;;;15.86;65.92;102038.13;5095878;28;20050;-63
2022/06/10 05:18:09;;;;;;;12.68;3.53;;;;;;;15.88;66.05;102047.13;5081563;28;20051;-63
2022/06/10 05:20:41;;;;;;;14.32;2.75;;;;;;;15.87;66.59;102039.81;5097611;28;20386;-63
2022/06/10 05:23:07;;;;;;;;;;;;;;;16.04;65.26;102036.13;5103840;28;20074;-63
2022/06/10 05:25:33;;;;;;;15.50;3.35;;;;;;;15.95;66.26;102032.91;5094124;28;19922;-63
2022/06/10 05:27:59;;;;;;;10.88;2.88;;;;;;;15.91;66.54;102026.97;5109199;28;20027;-63
2022/06/10 05:30:26;;;;;;;13.23;2.95;;;;;;;15.86;66.64;102028.88;5095622;28;20031;-63
2022/06/10 05:32:55;;;;;;;10.90;2.70;;;;;;;15.89;66.35;102034.81;5086774;28;20031;-63
2022/06/10 05:35:20;;;;;;;10.05;2.75;;;;;;;15.92;66.81;102036.25;5099025;28;20032;-62
2022/06/10 05:37:49;;;;;;;12.38;2.75;;;;;;;15.94;66.68;102031.22;5095856;28;20034;-63
2022/06/10 05:40:16;;;;;;;10.27;2.90;;;;;;;15.95;66.44;102032.91;5091134;28;20054;-62
2022/06/10 05:42:43;;;;;;;7.32;2.70;;;;;;;15.97;66.29;102029.88;5106281;28;20080;-62
2022/06/10 05:45:09;;;;;;;11.52;3.88;;;;;;;15.98;66.68;102032.41;5088968;28;20051;-62
2022/06/10 05:47:36;;;;;;;12.10;3.20;;;;;;;15.99;66.76;102034.09;5099813;28;20476;-63
2022/06/10 05:50:06;;;;;;;10.15;2.63;;;;;;;16.01;66.95;102033.84;5101598;28;20067;-63
2022/06/10 05:52:31;;;;;;;12.65;2.53;;;;;;;16.04;66.96;102034.16;5094427;28;20058;-62
2022/06/10 05:55:00;;;;;;;9.88;2.40;;;;;;;15.98;67.09;102037.16;5103434;28;20035;-62
2022/06/10 05:57:26;;;;;;;5.35;2.13;;;;;;;16.06;66.94;102033.91;5084523;28;20101;-63
2022/06/10 05:59:52;;;;;;;11.82;2.40;;;;;;;16.10;67.01;102029.47;5091172;28;20509;-63
2022/06/10 06:02:19;;;;;;;11.32;2.50;;;;;;;16.10;66.89;102030.31;5086824;28;20028;-62
2022/06/10 06:04:44;;;;;;;11.23;2.55;;;;;;;16.13;66.86;102031.75;5083664;28;20528;-62
2022/06/10 06:07:15;;;;;;;6.50;2.30;;;;;;;16.17;66.97;102030.13;5104539;28;20066;-62
2022/06/10 06:09:40;;;;;;;11.85;2.53;;;;;;;16.19;65.57;102028.75;5087574;28;20020;-62
2022/06/10 06:12:06;;;;;;;8.63;2.10;;;;;;;16.22;66.68;102034.94;5083384;28;20039;-62
2022/06/10 06:14:32;;;;;;;9.00;2.20;;;;;;;16.22;66.70;102037.72;5089975;28;20814;-62
2022/06/10 06:17:01;;;;;;;8.35;2.00;;;;;;;16.22;66.54;102041.38;5090650;28;20032;-63
2022/06/10 06:19:28;;;;;;;7.20;2.17;;;;;;;16.22;66.66;102044.16;5097392;28;20035;-62
2022/06/10 06:21:54;;;;;;;10.68;2.30;;;;;;;16.25;66.88;102032.44;5097853;28;20112;-62
2022/06/10 06:24:19;;;;;;;13.35;2.83;;;;;;;16.28;66.07;102040.34;5094119;28;20155;-62
2022/06/10 06:26:45;;;;;;;7.45;2.30;;;;;;;16.30;66.35;102040.06;5092667;28;20101;-63
2022/06/10 06:29:11;;;;;;;10.57;2.20;;;;;;;16.30;66.67;102048.47;5091041;28;20072;-62
2022/06/10 06:31:37;;;;;;;6.53;1.67;;;;;;;16.33;66.41;102054.41;5090394;28;20114;-63
2022/06/10 06:34:02;;;;;;;6.13;2.42;;;;;;;16.32;66.66;102052.72;5108223;28;20027;-64
2022/06/10 06:36:32;;;;;;;7.88;1.85;;;;;;;16.35;66.56;102049.38;5105792;28;20092;-64
2022/06/10 06:38:57;;;;;;;9.07;2.05;;;;;;;16.33;66.53;102053.56;5101139;28;20115;-63
2022/06/10 06:41:23;;;;;;;7.18;2.00;;;;;;;16.35;66.69;102054.16;5079496;27;20130;-63
2022/06/10 06:43:48;;;;;;;9.25;1.77;;;;;;;16.36;66.89;102061.44;5087112;28;20621;-64
2022/06/10 06:46:17;;;;;;;8.88;1.70;;;;;;;16.34;66.87;102058.88;5087690;28;20032;-65
2022/06/10 06:48:44;;;;;;;10.52;2.30;;;;;;;16.38;66.55;102067.59;5084097;28;20024;-64
2022/06/10 06:51:10;;;;;;;7.72;1.75;;;;;;;16.41;66.52;102070.75;5076524;28;20028;-64
2022/06/10 06:53:39;;;;;;;6.13;1.83;;;;;;;16.43;66.54;102076.94;5080130;28;20032;-65
2022/06/10 06:56:06;;;;;;;6.63;2.13;;;;;;;16.43;66.74;102071.34;5091934;28;20145;-64
2022/06/10 06:58:32;;;;;;;7.65;2.33;;;;;;;16.42;66.99;102066.81;5091675;28;20519;-63
2022/06/10 07:01:01;;;;;;;5.05;1.70;;;;;;;16.44;66.29;102074.97;5086564;28;20028;-64
2022/06/10 07:03:26;;;;;;;8.88;1.88;;;;;;;16.46;66.40;102067.13;5089219;28;20024;-64
2022/06/10 07:05:52;;;;;;;6.70;1.75;;;;;;;16.45;66.45;102069.09;5087993;28;20048;-63
2022/06/10 07:08:19;;;;;;;6.20;2.05;;;;;;;16.49;66.36;102074.19;5089268;28;20072;-63
2022/06/10 07:10:45;;;;;;;7.07;1.77;;;;;;;16.49;66.95;102060.19;5090440;28;20494;-64
2022/06/10 07:13:12;;;;;;;7.00;1.85;;;;;;;16.50;66.55;102065.50;5089828;28;20115;-64
2022/06/10 07:15:39;;;;;;;7.53;2.00;;;;;;;16.54;66.30;102060.22;5080037;28;20117;-63
2022/06/10 07:18:05;;;;;;;9.43;2.20;;;;;;;16.58;66.26;102064.19;5088855;28;20433;-63
2022/06/10 07:20:35;;;;;;;7.25;2.05;;;;;;;16.58;66.48;102059.41;5087157;28;20061;-64
2022/06/10 07:23:02;;;;;;;5.40;1.77;;;;;;;16.61;66.48;102060.84;5093181;28;20024;-65
2022/06/10 07:25:29;;;;;;;9.02;2.30;;;;;;;16.67;66.79;102068.22;5095321;28;20077;-65
2022/06/10 07:27:55;;;;;;;6.30;1.92;;;;;;;16.78;65.97;102072.00;5087924;28;20054;-65
2022/06/10 07:30:24;;;;;;;7.35;1.85;;;;;;;16.86;66.08;102077.16;5100486;28;20032;-65
2022/06/10 07:32:50;;;;;;;6.53;1.95;;;;;;;16.88;65.74;102083.31;5086990;28;20055;-65
2022/06/10 07:35:18;;;;;;;6.18;2.10;;;;;;;16.88;65.82;102072.09;5085028;28;20087;-65
2022/06/10 07:37:44;;;;;;;5.55;1.90;;;;;;;16.87;65.61;102074.06;5090896;28;20383;-65
2022/06/10 07:41:56;;;;;;;9.75;2.17;;;;;;;16.87;66.21;102073.22;5084624;28;20024;-66
2022/06/10 07:42:56;;;;;;;8.38;2.10;;;;;;;16.88;66.51;102077.72;5094208;28;20024;-64
2022/06/10 07:45:22;;;;;;;9.38;2.50;;;;;;;16.87;65.67;102074.06;5088276;28;20031;-62
2022/06/10 07:47:47;;;;;;;9.20;1.67;;;;;;;16.88;65.83;102072.94;5088942;28;20423;-63
2022/06/10 07:50:12;;;;;;;7.18;1.75;;;;;;;16.89;66.12;102076.59;5084565;28;20493;-62
2022/06/10 07:52:38;;;;;;;9.23;1.70;;;;;;;16.89;65.82;102062.56;5090657;28;20031;-61
2022/06/10 07:55:03;;;;;;;6.20;1.50;;;;;;;16.89;65.58;102071.81;5085143;28;20542;-62
2022/06/10 07:57:29;;;;;;;6.95;1.70;;;;;;;16.91;65.78;102064.00;5081920;28;20025;-64
2022/06/10 07:59:54;;;;;;;6.35;1.88;;;;;;;16.93;65.78;102070.19;5098471;28;20466;-64
2022/06/10 08:02:19;;;;;;;8.43;1.73;;;;;;;16.96;65.64;102066.00;5098968;28;20046;-63
2022/06/10 08:04:44;;;;;;;7.60;1.70;;;;;;;17.00;65.66;102063.50;5085881;28;20085;-64
2022/06/10 08:07:13;;;;;;;7.85;1.92;;;;;;;17.05;65.70;102074.78;5080878;28;20596;-64
2022/06/10 08:09:38;;;;;;;5.60;1.75;;;;;;;17.09;65.15;102067.50;5089706;28;20028;-61
2022/06/10 08:12:07;;;;;;;6.45;1.70;;;;;;;17.12;65.15;102078.22;5087289;28;20035;-65
2022/06/10 08:14:32;;;;;;;5.70;1.70;;;;;;;17.18;65.01;102074.34;5080293;28;20032;-63
2022/06/10 08:16:59;;;;;;;5.85;1.67;;;;;;;17.22;64.47;102086.72;5080532;28;20037;-62
2022/06/10 08:19:28;;;;;;;6.38;1.77;;;;;;;17.26;63.21;102085.06;5085224;28;20028;-62
2022/06/10 08:24:37;;;;;;;6.97;1.65;;;;;;;17.49;63.32;102078.22;5111849;28;20070;-62
2022/06/10 08:27:02;;;;;;;6.45;1.92;;;;;;;17.48;62.78;102070.06;5091251;28;20103;-62
2022/06/10 08:29:28;;;;;;;8.25;2.10;;;;;;;17.49;62.91;102077.34;5107321;28;20115;-63
2022/06/10 08:31:53;;;;;;;9.02;2.03;;;;;;;17.49;62.90;102082.97;5103832;28;20110;-62
2022/06/10 08:34:19;;;;;;;13.95;2.25;;;;;;;17.50;62.36;102081.88;5097162;28;20067;-62
2022/06/10 08:36:44;;;;;;;7.22;1.95;;;;;;;17.50;62.47;102087.50;5098514;28;20114;-62
2022/06/10 08:39:15;;;;;;;13.90;2.80;;;;;;;17.52;62.82;102082.44;5090921;28;20038;-63
2022/06/10 08:41:52;;;;;;;9.37;2.40;;;;;;;17.53;62.90;102076.56;5096775;28;20066;-62
2022/06/10 08:44:30;;;;;;;8.98;2.25;;;;;;;17.53;62.59;102078.53;5090711;28;20030;-63
2022/06/10 08:47:21;;;;;;;10.95;2.75;;;;;;;17.58;63.22;102078.56;5088617;28;20382;-62
2022/06/10 08:50:11;;;;;;;12.27;2.50;;;;;;;17.61;62.41;102066.81;5076505;28;20036;-62
2022/06/10 08:52:38;;;;;;;9.18;2.42;;;;;;;17.67;61.67;102060.09;5078838;28;20072;-62
2022/06/10 08:55:09;;;;;;;11.68;2.67;;;;;;;17.76;62.21;102063.25;5090829;28;20504;-62
2022/06/10 08:57:41;;;;;;;7.63;2.20;;;;;;;17.85;61.81;102048.44;5084107;28;20039;-61
2022/06/10 09:00:22;;;;;;;15.10;2.95;;;;;;;18.05;62.54;102052.47;5094686;28;20024;-62
2022/06/10 09:03:12;;;;;;;12.00;3.35;;;;;;;18.25;61.53;102060.13;5090955;28;20043;-62
2022/06/10 09:05:46;;;;;;;7.90;2.35;;;;;;;18.45;61.26;102057.38;5081401;28;20080;-63
2022/06/10 09:08:26;;;;;;;11.82;2.85;;;;;;;18.62;61.17;102055.16;5079554;28;20028;-62
2022/06/10 09:10:56;;;;;;;8.73;2.25;;;;;;;18.74;61.02;102060.56;5077980;28;20517;-62
2022/06/10 09:13:44;;;;;;;11.55;2.80;;;;;;;18.75;60.77;102062.25;5085598;28;20171;-62
2022/06/10 09:16:16;;;;;;;11.55;2.60;;;;;;;18.76;60.42;102058.31;5081282;28;20719;-62
2022/06/10 09:19:04;;;;;;;9.90;2.70;;;;;;;18.92;61.29;102063.97;5093019;28;20031;-63
2022/06/10 09:21:41;;;;;;;10.10;2.42;;;;;;;19.05;60.77;102061.44;5106221;28;20517;-63
2022/06/10 09:24:29;;;;;;;7.60;2.45;;;;;;;19.16;61.04;102065.09;5074777;28;20035;-63
2022/06/10 09:27:14;;;;;;;10.93;3.15;;;;;;;19.27;60.14;102072.41;5073073;28;20028;-63
2022/06/10 09:29:40;;;;;;;8.07;2.67;;;;;;;19.36;59.52;102069.88;5070010;28;20033;-63
2022/06/10 09:32:32;;;;;;;11.52;2.72;;;;;;;19.38;58.98;102071.28;5069417;28;20117;-63
2022/06/10 09:35:03;;;;;;;8.85;2.28;;;;;;;19.40;59.30;102071.00;5045664;28;20389;-63
2022/06/10 09:37:40;;;;;;;9.55;2.60;;;;;;;19.44;59.95;102069.28;5081213;28;20036;-64
2022/06/10 09:40:37;;;;;;;12.93;2.45;;;;;;;19.41;59.72;102069.84;5088772;28;20020;-63
2022/06/10 09:43:30;;;;;;;10.02;2.63;;;;;;;19.37;59.50;102066.78;5069350;28;20472;-63
2022/06/10 09:45:58;;;;;;;6.72;2.35;;;;;;;19.39;59.98;102072.13;5078983;28;20063;-62
2022/06/10 09:48:43;;;;;;;10.95;3.05;;;;;;;19.35;59.47;102071.84;5078035;28;20027;-63
2022/06/10 09:51:35;;;;;;;12.85;3.13;;;;;;;19.35;60.29;102068.19;5077352;28;20041;-62
2022/06/10 09:54:06;;;;;;;;;;;;;;;19.38;60.60;102067.63;5097207;28;20032;-62
2022/06/10 09:56:48;;;;;;;10.70;3.30;;;;;;;19.36;59.87;102069.88;5094189;28;19970;-63
2022/06/10 09:59:27;;;;;;;9.02;3.40;;;;;;;19.41;60.04;102078.31;5088259;28;20069;-63
2022/06/10 10:02:06;;;;;;;7.65;2.60;;;;;;;19.51;60.72;102067.03;5110466;28;20031;-63
2022/06/10 10:04:56;;;;;;;6.72;2.50;;;;;;;19.59;60.53;102071.25;5095931;28;20048;-62
2022/06/10 10:07:49;;;;;;;12.52;3.05;;;;;;;19.60;59.94;102072.94;5080193;28;20040;-63
2022/06/10 10:10:27;;;;;;;9.55;3.15;;;;;;;19.61;60.07;102072.69;5078894;28;20043;-62
2022/06/10 10:13:22;;;;;;;10.90;2.90;;;;;;;19.69;60.52;102068.47;5080393;28;20105;-62
2022/06/10 10:16:25;;;;;;;10.63;3.13;;;;;;;19.68;60.37;102066.75;5082728;28;20104;-63
2022/06/10 10:19:12;;;;;;;12.40;3.55;;;;;;;19.64;60.05;102074.06;5086470;28;20048;-61
2022/06/10 10:21:43;;;;;;;12.63;3.63;;;;;;;19.59;60.33;102079.69;5081502;28;20021;-61
2022/06/10 10:24:18;;;;;;;9.52;3.60;;;;;;;19.65;61.15;102074.91;5085626;28;20039;-62
2022/06/10 10:26:45;;;;;;;11.43;3.17;;;;;;;19.70;60.94;102072.94;5085684;28;20031;-61
2022/06/10 10:29:20;;;;;;;13.70;3.10;;;;;;;19.73;59.79;102069.56;5084923;28;20031;-62
2022/06/10 10:32:10;;;;;;;12.13;3.78;;;;;;;19.86;60.36;102068.13;5106302;28;20039;-62
2022/06/10 10:34:38;;;;;;;8.75;2.75;;;;;;;20.10;61.16;102052.25;5090137;28;20035;-63
2022/06/10 10:37:18;;;;;;;8.98;3.00;;;;;;;20.18;60.17;102059.25;5094022;28;20020;-63
2022/06/10 10:39:50;;;;;;;13.80;3.42;;;;;;;20.24;59.78;102054.44;5085907;28;20475;-63
2022/06/10 10:42:19;;;;;;;11.02;3.40;;;;;;;20.28;58.96;102055.56;5090131;28;20035;-62
2022/06/10 10:44:51;;;;;;;12.70;3.25;;;;;;;20.43;59.33;102048.97;5073836;28;20036;-64
2022/06/10 10:47:21;;;;;;;6.80;2.70;;;;;;;20.45;59.11;102044.75;5077203;28;20402;-64
2022/06/10 10:49:56;;;;;;;9.32;3.47;;;;;;;20.55;59.22;102057.97;5090855;28;20044;-64
2022/06/10 10:52:29;;;;;;;9.25;3.08;;;;;;;20.56;59.16;102056.84;5093281;28;20069;-64
2022/06/10 10:54:59;;;;;;;11.35;3.08;;;;;;;20.56;58.74;102048.38;5089894;28;20069;-63
2022/06/10 10:57:35;;;;;;;13.43;3.30;;;;;;;20.51;59.22;102045.56;5089064;28;20038;-63
2022/06/10 11:00:07;;;;;;;11.20;3.45;;;;;;;20.47;59.62;102050.09;5085890;28;20485;-63
2022/06/10 11:02:34;;;;;;;10.18;3.47;;;;;;;20.42;59.55;102053.78;5071482;28;20031;-64
2022/06/10 11:05:35;;;;;;;12.02;3.50;;;;;;;20.37;59.59;102056.63;5070540;28;20055;-63
2022/06/10 11:08:25;;;;;;;13.05;3.28;;;;;;;20.37;60.08;102061.44;5085601;28;20089;-63
2022/06/10 11:11:22;;;;;;;10.05;3.28;;;;;;;20.37;60.06;102055.81;5082989;28;20044;-65
2022/06/10 11:14:00;;;;;;;11.18;4.07;;;;;;;20.34;59.68;102052.41;5083674;28;20493;-64
2022/06/10 11:19:19;;;;;;;12.02;3.35;;;;;;;20.51;59.65;102056.84;5085951;28;20027;-64
2022/06/10 11:22:03;;;;;;;11.32;3.63;;;;;;;20.63;59.58;102048.88;5089288;28;20172;-64
2022/06/10 11:24:37;;;;;;;11.15;3.45;;;;;;;20.72;58.97;102064.06;5086495;28;20047;-63
2022/06/10 11:27:17;;;;;;;9.38;3.53;;;;;;;20.73;59.16;102046.00;5089649;28;20028;-65
2022/06/10 11:29:43;;;;;;;8.43;3.08;;;;;;;20.67;58.96;102052.84;5081272;28;20425;-64
2022/06/10 11:32:23;;;;;;;9.13;2.92;;;;;;;20.67;58.93;102043.50;5087642;28;20040;-64
2022/06/10 11:34:56;;;;;;;12.25;3.58;;;;;;;20.71;58.83;102045.47;5091954;28;20028;-64
2022/06/10 11:37:35;;;;;;;11.75;3.55;;;;;;;20.68;59.08;102042.38;5095256;28;20027;-65
2022/06/10 11:40:13;;;;;;;6.75;2.90;;;;;;;20.68;58.52;102040.41;5104147;28;20051;-65
2022/06/10 11:42:48;;;;;;;9.77;3.03;;;;;;;20.73;58.55;102043.19;5112401;27;20035;-64
2022/06/10 11:45:21;;;;;;;11.48;3.13;;;;;;;20.81;58.14;102036.91;5099525;27;20015;-63
2022/06/10 11:47:55;;;;;;;8.80;2.90;;;;;;;20.87;58.61;102036.88;5099086;28;20031;-64
2022/06/10 11:50:48;;;;;;;9.57;3.00;;;;;;;20.95;58.13;102037.09;5089804;28;20012;-66
2022/06/10 11:53:34;;;;;;;5.45;2.40;;;;;;;20.98;57.75;102021.53;5091990;28;20031;-64
2022/06/10 12:01:46;;;;;;;8.75;3.05;;;;;;;21.22;55.73;102024.44;5081456;28;20438;-65